sensor_id;sensor_type;location;lat;lon;timestamp;pressure;altitude;pressure_sealevel;temperature;humidity
61205;BME280;47068;55.780;37.520;2024-03-06T00:00:09;101042.34;;;-2.27;55.57
61205;BME280;47068;55.780;37.520;2024-03-06T00:02:35;101046.16;;;-2.37;54.81
61205;BME280;47068;55.780;37.520;2024-03-06T00:05:01;101044.66;;;-2.44;55.14
61205;BME280;47068;55.780;37.520;2024-03-06T00:07:26;101047.13;;;-2.41;55.46
61205;BME280;47068;55.780;37.520;2024-03-06T00:09:51;101043.75;;;-2.43;55.05
61205;BME280;47068;55.780;37.520;2024-03-06T00:12:18;101049.88;;;-2.44;55.06
61205;BME280;47068;55.780;37.520;2024-03-06T00:14:43;101043.88;;;-2.48;55.56
61205;BME280;47068;55.780;37.520;2024-03-06T00:17:09;101049.88;;;-2.44;55.38
61205;BME280;47068;55.780;37.520;2024-03-06T00:19:34;101055.06;;;-2.44;54.82
61205;BME280;47068;55.780;37.520;2024-03-06T00:22:00;101041.16;;;-2.43;55.24
61205;BME280;47068;55.780;37.520;2024-03-06T00:24:26;101052.66;;;-2.50;54.81
61205;BME280;47068;55.780;37.520;2024-03-06T00:26:51;101052.91;;;-2.58;54.71
61205;BME280;47068;55.780;37.520;2024-03-06T00:29:17;101056.56;;;-2.63;54.82
61205;BME280;47068;55.780;37.520;2024-03-06T00:31:43;101062.75;;;-2.67;54.92
61205;BME280;47068;55.780;37.520;2024-03-06T00:34:09;101061.16;;;-2.71;54.62
61205;BME280;47068;55.780;37.520;2024-03-06T00:36:35;101064.66;;;-2.72;54.78
61205;BME280;47068;55.780;37.520;2024-03-06T00:39:00;101061.94;;;-2.69;54.70
61205;BME280;47068;55.780;37.520;2024-03-06T00:41:25;101061.22;;;-2.74;54.70
61205;BME280;47068;55.780;37.520;2024-03-06T00:43:50;101057.91;;;-2.80;54.71
61205;BME280;47068;55.780;37.520;2024-03-06T00:46:16;101063.16;;;-2.81;54.31
61205;BME280;47068;55.780;37.520;2024-03-06T00:48:42;101061.59;;;-2.87;54.23
61205;BME280;47068;55.780;37.520;2024-03-06T00:51:07;101065.22;;;-2.91;55.27
61205;BME280;47068;55.780;37.520;2024-03-06T00:53:32;101060.97;;;-2.95;54.72
61205;BME280;47068;55.780;37.520;2024-03-06T00:55:58;101055.69;;;-2.92;54.95
61205;BME280;47068;55.780;37.520;2024-03-06T00:58:23;101049.59;;;-2.91;54.84
61205;BME280;47068;55.780;37.520;2024-03-06T01:00:48;101055.69;;;-2.92;54.71
61205;BME280;47068;55.780;37.520;2024-03-06T01:03:14;101046.25;;;-2.96;54.57
61205;BME280;47068;55.780;37.520;2024-03-06T01:05:39;101043.75;;;-2.99;54.69
61205;BME280;47068;55.780;37.520;2024-03-06T01:08:04;101049.91;;;-3.01;55.38
61205;BME280;47068;55.780;37.520;2024-03-06T01:10:30;101043.66;;;-2.96;54.94
61205;BME280;47068;55.780;37.520;2024-03-06T01:12:55;101043.75;;;-2.99;54.97
61205;BME280;47068;55.780;37.520;2024-03-06T01:15:22;101046.44;;;-3.02;54.55
61205;BME280;47068;55.780;37.520;2024-03-06T01:17:47;101054.94;;;-2.97;54.52
61205;BME280;47068;55.780;37.520;2024-03-06T01:20:13;101049.66;;;-2.94;55.09
61205;BME280;47068;55.780;37.520;2024-03-06T01:22:38;101060.28;;;-3.00;55.18
61205;BME280;47068;55.780;37.520;2024-03-06T01:25:04;101052.66;;;-3.06;54.53
61205;BME280;47068;55.780;37.520;2024-03-06T01:27:29;101050.94;;;-3.07;54.29
61205;BME280;47068;55.780;37.520;2024-03-06T01:29:55;101056.13;;;-3.07;55.44
61205;BME280;47068;55.780;37.520;2024-03-06T01:32:20;101047.63;;;-3.12;53.60
61205;BME280;47068;55.780;37.520;2024-03-06T01:34:46;101049.63;;;-3.22;54.96
61205;BME280;47068;55.780;37.520;2024-03-06T01:37:11;101046.97;;;-3.20;54.92
61205;BME280;47068;55.780;37.520;2024-03-06T01:39:36;101046.09;;;-3.19;55.37
61205;BME280;47068;55.780;37.520;2024-03-06T01:42:02;101046.13;;;-3.21;54.97
61205;BME280;47068;55.780;37.520;2024-03-06T01:44:28;101046.94;;;-3.19;54.58
61205;BME280;47068;55.780;37.520;2024-03-06T01:46:54;101054.09;;;-3.25;55.01
61205;BME280;47068;55.780;37.520;2024-03-06T01:49:19;101053.16;;;-3.24;54.57
61205;BME280;47068;55.780;37.520;2024-03-06T01:51:48;101053.94;;;-3.21;54.82
61205;BME280;47068;55.780;37.520;2024-03-06T01:54:14;101062.59;;;-3.20;54.66
61205;BME280;47068;55.780;37.520;2024-03-06T01:56:43;101064.31;;;-3.19;55.27
61205;BME280;47068;55.780;37.520;2024-03-06T01:59:09;101062.69;;;-3.23;54.81
61205;BME280;47068;55.780;37.520;2024-03-06T02:01:35;101069.72;;;-3.27;55.82
61205;BME280;47068;55.780;37.520;2024-03-06T02:04:01;101062.84;;;-3.29;55.56
61205;BME280;47068;55.780;37.520;2024-03-06T02:06:26;101070.59;;;-3.26;55.79
61205;BME280;47068;55.780;37.520;2024-03-06T02:08:52;101068.91;;;-3.29;55.43
61205;BME280;47068;55.780;37.520;2024-03-06T02:11:17;101065.59;;;-3.34;55.83
61205;BME280;47068;55.780;37.520;2024-03-06T02:13:43;101061.31;;;-3.36;55.87
61205;BME280;47068;55.780;37.520;2024-03-06T02:16:09;101054.34;;;-3.34;55.94
61205;BME280;47068;55.780;37.520;2024-03-06T02:18:34;101059.53;;;-3.34;56.28
61205;BME280;47068;55.780;37.520;2024-03-06T02:20:59;101064.91;;;-3.40;56.73
61205;BME280;47068;55.780;37.520;2024-03-06T02:23:25;101060.81;;;-3.49;56.67
61205;BME280;47068;55.780;37.520;2024-03-06T02:25:50;101063.63;;;-3.57;56.87
61205;BME280;47068;55.780;37.520;2024-03-06T02:28:16;101063.72;;;-3.60;56.05
61205;BME280;47068;55.780;37.520;2024-03-06T02:30:44;101062.00;;;-3.61;56.44
61205;BME280;47068;55.780;37.520;2024-03-06T02:33:09;101065.41;;;-3.59;56.71
61205;BME280;47068;55.780;37.520;2024-03-06T02:35:35;101059.13;;;-3.51;56.41
61205;BME280;47068;55.780;37.520;2024-03-06T02:38:01;101070.44;;;-3.52;56.17
61205;BME280;47068;55.780;37.520;2024-03-06T02:40:26;101061.13;;;-3.60;55.97
61205;BME280;47068;55.780;37.520;2024-03-06T02:42:52;101068.31;;;-3.69;56.60
61205;BME280;47068;55.780;37.520;2024-03-06T02:45:17;101067.63;;;-3.76;56.24
61205;BME280;47068;55.780;37.520;2024-03-06T02:47:44;101074.59;;;-3.78;55.93
61205;BME280;47068;55.780;37.520;2024-03-06T02:50:09;101081.22;;;-3.66;55.74
61205;BME280;47068;55.780;37.520;2024-03-06T02:52:35;101077.63;;;-3.61;55.86
61205;BME280;47068;55.780;37.520;2024-03-06T02:55:01;101080.31;;;-3.65;55.67
61205;BME280;47068;55.780;37.520;2024-03-06T02:57:27;101080.41;;;-3.68;55.67
61205;BME280;47068;55.780;37.520;2024-03-06T02:59:53;101089.31;;;-3.77;55.41
61205;BME280;47068;55.780;37.520;2024-03-06T03:02:18;101096.38;;;-3.82;55.83
61205;BME280;47068;55.780;37.520;2024-03-06T03:04:44;101098.28;;;-3.88;55.27
61205;BME280;47068;55.780;37.520;2024-03-06T03:07:09;101108.63;;;-3.87;54.98
61205;BME280;47068;55.780;37.520;2024-03-06T03:09:35;101106.88;;;-3.86;56.07
61205;BME280;47068;55.780;37.520;2024-03-06T03:12:01;101110.41;;;-3.87;55.68
61205;BME280;47068;55.780;37.520;2024-03-06T03:14:26;101112.13;;;-3.88;54.89
61205;BME280;47068;55.780;37.520;2024-03-06T03:16:52;101116.38;;;-3.85;54.62
61205;BME280;47068;55.780;37.520;2024-03-06T03:19:18;101119.78;;;-3.82;54.85
61205;BME280;47068;55.780;37.520;2024-03-06T03:21:44;101112.88;;;-3.83;53.95
61205;BME280;47068;55.780;37.520;2024-03-06T03:24:09;101124.31;;;-3.90;53.47
61205;BME280;47068;55.780;37.520;2024-03-06T03:26:35;101122.47;;;-3.86;53.61
61205;BME280;47068;55.780;37.520;2024-03-06T03:29:01;101125.91;;;-3.84;53.92
61205;BME280;47068;55.780;37.520;2024-03-06T03:31:26;101136.00;;;-3.72;53.44
61205;BME280;47068;55.780;37.520;2024-03-06T03:33:51;101125.38;;;-3.65;53.37
61205;BME280;47068;55.780;37.520;2024-03-06T03:36:17;101124.50;;;-3.64;53.40
61205;BME280;47068;55.780;37.520;2024-03-06T03:38:42;101128.81;;;-3.63;53.18
61205;BME280;47068;55.780;37.520;2024-03-06T03:41:08;101129.81;;;-3.67;53.17
61205;BME280;47068;55.780;37.520;2024-03-06T03:43:33;101135.22;;;-3.76;53.33
61205;BME280;47068;55.780;37.520;2024-03-06T03:45:59;101131.03;;;-3.81;53.30
61205;BME280;47068;55.780;37.520;2024-03-06T03:48:24;101127.75;;;-3.88;53.13
61205;BME280;47068;55.780;37.520;2024-03-06T03:50:50;101125.34;;;-3.97;54.15
61205;BME280;47068;55.780;37.520;2024-03-06T03:53:15;101128.97;;;-4.03;52.65
61205;BME280;47068;55.780;37.520;2024-03-06T03:55:41;101124.72;;;-4.07;53.57
61205;BME280;47068;55.780;37.520;2024-03-06T03:58:06;101124.84;;;-4.11;53.67
61205;BME280;47068;55.780;37.520;2024-03-06T04:00:32;101118.09;;;-4.20;52.58
61205;BME280;47068;55.780;37.520;2024-03-06T04:02:57;101122.44;;;-4.20;53.02
61205;BME280;47068;55.780;37.520;2024-03-06T04:05:23;101119.94;;;-4.23;53.79
61205;BME280;47068;55.780;37.520;2024-03-06T04:07:48;101112.94;;;-4.21;53.61
61205;BME280;47068;55.780;37.520;2024-03-06T04:10:14;101116.44;;;-4.22;53.18
61205;BME280;47068;55.780;37.520;2024-03-06T04:12:39;101118.09;;;-4.20;53.39
61205;BME280;47068;55.780;37.520;2024-03-06T04:15:04;101115.47;;;-4.18;53.47
61205;BME280;47068;55.780;37.520;2024-03-06T04:17:30;101118.78;;;-4.12;53.40
61205;BME280;47068;55.780;37.520;2024-03-06T04:19:55;101121.25;;;-4.07;53.82
61205;BME280;47068;55.780;37.520;2024-03-06T04:22:21;101122.25;;;-4.11;53.39
61205;BME280;47068;55.780;37.520;2024-03-06T04:24:46;101124.91;;;-4.14;53.72
61205;BME280;47068;55.780;37.520;2024-03-06T04:27:12;101123.31;;;-4.20;54.80
61205;BME280;47068;55.780;37.520;2024-03-06T04:29:38;101133.81;;;-4.24;53.90
61205;BME280;47068;55.780;37.520;2024-03-06T04:32:03;101137.34;;;-4.28;54.29
61205;BME280;47068;55.780;37.520;2024-03-06T04:34:29;101141.63;;;-4.26;53.46
61205;BME280;47068;55.780;37.520;2024-03-06T04:36:54;101124.16;;;-4.19;54.12
61205;BME280;47068;55.780;37.520;2024-03-06T04:39:19;101123.84;;;-4.07;53.15
61205;BME280;47068;55.780;37.520;2024-03-06T04:41:44;101123.84;;;-4.07;52.36
61205;BME280;47068;55.780;37.520;2024-03-06T04:44:10;101125.72;;;-4.12;51.34
61205;BME280;47068;55.780;37.520;2024-03-06T04:46:35;101117.91;;;-4.11;51.68
61205;BME280;47068;55.780;37.520;2024-03-06T04:49:02;101123.00;;;-4.08;51.36
61205;BME280;47068;55.780;37.520;2024-03-06T04:51:28;101117.03;;;-4.11;51.29
61205;BME280;47068;55.780;37.520;2024-03-06T04:53:53;101123.97;;;-4.12;51.59
61205;BME280;47068;55.780;37.520;2024-03-06T04:56:19;101122.25;;;-4.11;51.43
61205;BME280;47068;55.780;37.520;2024-03-06T04:58:46;101128.03;;;-4.00;51.03
61205;BME280;47068;55.780;37.520;2024-03-06T05:01:12;101124.50;;;-3.98;50.70
61205;BME280;47068;55.780;37.520;2024-03-06T05:03:37;101121.94;;;-3.99;50.35
61205;BME280;47068;55.780;37.520;2024-03-06T05:06:03;101123.75;;;-4.01;51.09
61205;BME280;47068;55.780;37.520;2024-03-06T05:08:30;101130.63;;;-4.00;50.91
61205;BME280;47068;55.780;37.520;2024-03-06T05:10:55;101132.44;;;-4.02;50.36
61205;BME280;47068;55.780;37.520;2024-03-06T05:13:21;101129.84;;;-4.04;49.98
61205;BME280;47068;55.780;37.520;2024-03-06T05:15:47;101121.19;;;-4.04;50.46
61205;BME280;47068;55.780;37.520;2024-03-06T05:18:12;101114.81;;;-3.91;50.14
61205;BME280;47068;55.780;37.520;2024-03-06T05:20:38;101126.94;;;-3.91;50.54
61205;BME280;47068;55.780;37.520;2024-03-06T05:23:03;101125.19;;;-3.91;50.93
61205;BME280;47068;55.780;37.520;2024-03-06T05:25:29;101125.84;;;-3.81;50.76
61205;BME280;47068;55.780;37.520;2024-03-06T05:27:54;101128.31;;;-3.77;50.63
61205;BME280;47068;55.780;37.520;2024-03-06T05:30:19;101129.06;;;-3.73;50.31
61205;BME280;47068;55.780;37.520;2024-03-06T05:32:45;101125.56;;;-3.71;50.52
61205;BME280;47068;55.780;37.520;2024-03-06T05:35:12;101131.38;;;-3.61;49.33
61205;BME280;47068;55.780;37.520;2024-03-06T05:37:37;101124.28;;;-3.54;48.97
61205;BME280;47068;55.780;37.520;2024-03-06T05:40:03;101129.38;;;-3.51;48.61
61205;BME280;47068;55.780;37.520;2024-03-06T05:42:30;101132.66;;;-3.45;48.78
61205;BME280;47068;55.780;37.520;2024-03-06T05:44:56;101138.47;;;-3.34;48.85
61205;BME280;47068;55.780;37.520;2024-03-06T05:47:25;101136.66;;;-3.01;47.97
61205;BME280;47068;55.780;37.520;2024-03-06T05:49:50;101136.53;;;-1.83;45.85
61205;BME280;47068;55.780;37.520;2024-03-06T05:52:16;101140.00;;;0.05;42.50
61205;BME280;47068;55.780;37.520;2024-03-06T05:54:42;101129.75;;;3.46;38.08
61205;BME280;47068;55.780;37.520;2024-03-06T05:57:07;101122.59;;;4.99;34.47
61205;BME280;47068;55.780;37.520;2024-03-06T05:59:32;101130.97;;;3.56;34.09
61205;BME280;47068;55.780;37.520;2024-03-06T06:01:58;101129.56;;;2.85;34.94
61205;BME280;47068;55.780;37.520;2024-03-06T06:04:23;101117.19;;;6.25;31.84
61205;BME280;47068;55.780;37.520;2024-03-06T06:06:48;101105.22;;;9.76;27.77
61205;BME280;47068;55.780;37.520;2024-03-06T06:09:14;101101.81;;;12.40;24.45
61205;BME280;47068;55.780;37.520;2024-03-06T06:11:44;101094.69;;;14.59;22.31
61205;BME280;47068;55.780;37.520;2024-03-06T06:14:09;101093.59;;;16.13;19.89
61205;BME280;47068;55.780;37.520;2024-03-06T06:16:36;101092.97;;;16.76;18.57
61205;BME280;47068;55.780;37.520;2024-03-06T06:19:01;101087.75;;;14.92;18.90
61205;BME280;47068;55.780;37.520;2024-03-06T06:21:27;101103.13;;;11.67;21.08
61205;BME280;47068;55.780;37.520;2024-03-06T06:23:52;101102.34;;;8.57;24.16
61205;BME280;47068;55.780;37.520;2024-03-06T06:26:17;101106.66;;;6.50;26.73
61205;BME280;47068;55.780;37.520;2024-03-06T06:28:43;101125.72;;;5.20;28.17
61205;BME280;47068;55.780;37.520;2024-03-06T06:31:08;101117.53;;;4.08;29.96
61205;BME280;47068;55.780;37.520;2024-03-06T06:33:33;101120.44;;;3.25;31.78
61205;BME280;47068;55.780;37.520;2024-03-06T06:35:59;101133.75;;;2.89;33.19
61205;BME280;47068;55.780;37.520;2024-03-06T06:38:24;101124.94;;;2.72;32.77
61205;BME280;47068;55.780;37.520;2024-03-06T06:40:50;101124.97;;;2.38;33.28
61205;BME280;47068;55.780;37.520;2024-03-06T06:43:15;101130.50;;;2.15;33.90
61205;BME280;47068;55.780;37.520;2024-03-06T06:45:41;101130.63;;;1.94;33.89
61205;BME280;47068;55.780;37.520;2024-03-06T06:48:06;101127.84;;;1.97;33.43
61205;BME280;47068;55.780;37.520;2024-03-06T06:50:31;101129.22;;;1.87;33.93
61205;BME280;47068;55.780;37.520;2024-03-06T06:52:58;101139.75;;;1.69;34.56
61205;BME280;47068;55.780;37.520;2024-03-06T06:55:24;101141.22;;;1.74;35.85
61205;BME280;47068;55.780;37.520;2024-03-06T06:57:50;101137.53;;;1.78;34.78
61205;BME280;47068;55.780;37.520;2024-03-06T07:00:16;101130.47;;;1.97;34.01
61205;BME280;47068;55.780;37.520;2024-03-06T07:02:43;101136.53;;;2.17;32.73
61205;BME280;47068;55.780;37.520;2024-03-06T07:05:10;101137.75;;;2.10;33.81
61205;BME280;47068;55.780;37.520;2024-03-06T07:07:35;101136.72;;;1.95;33.34
61205;BME280;47068;55.780;37.520;2024-03-06T07:10:01;101130.28;;;1.83;33.19
61205;BME280;47068;55.780;37.520;2024-03-06T07:12:28;101134.84;;;1.61;33.97
61205;BME280;47068;55.780;37.520;2024-03-06T07:14:53;101141.56;;;1.67;34.48
61205;BME280;47068;55.780;37.520;2024-03-06T07:17:18;101143.22;;;1.69;34.48
61205;BME280;47068;55.780;37.520;2024-03-06T07:19:44;101136.25;;;1.68;35.02
61205;BME280;47068;55.780;37.520;2024-03-06T07:22:09;101141.50;;;1.68;35.00
61205;BME280;47068;55.780;37.520;2024-03-06T07:24:34;101138.59;;;1.74;34.73
61205;BME280;47068;55.780;37.520;2024-03-06T07:27:00;101143.22;;;1.69;34.98
61205;BME280;47068;55.780;37.520;2024-03-06T07:29:27;101136.13;;;1.71;35.05
61205;BME280;47068;55.780;37.520;2024-03-06T07:31:52;101140.94;;;1.80;35.96
61205;BME280;47068;55.780;37.520;2024-03-06T07:34:18;101140.66;;;1.86;35.95
61205;BME280;47068;55.780;37.520;2024-03-06T07:36:44;101141.22;;;1.93;35.21
61205;BME280;47068;55.780;37.520;2024-03-06T07:39:11;101138.09;;;1.85;35.82
61205;BME280;47068;55.780;37.520;2024-03-06T07:41:37;101153.13;;;1.81;35.60
61205;BME280;47068;55.780;37.520;2024-03-06T07:44:03;101151.28;;;1.83;35.84
61205;BME280;47068;55.780;37.520;2024-03-06T07:46:28;101155.28;;;2.09;35.18
61205;BME280;47068;55.780;37.520;2024-03-06T07:48:53;101149.28;;;2.24;34.44
61205;BME280;47068;55.780;37.520;2024-03-06T07:51:20;101153.31;;;1.95;34.10
61205;BME280;47068;55.780;37.520;2024-03-06T07:53:45;101157.09;;;1.90;35.24
61205;BME280;47068;55.780;37.520;2024-03-06T07:56:11;101149.72;;;2.15;35.01
61205;BME280;47068;55.780;37.520;2024-03-06T07:58:36;101152.06;;;2.38;35.04
61205;BME280;47068;55.780;37.520;2024-03-06T08:01:02;101146.44;;;2.81;33.54
61205;BME280;47068;55.780;37.520;2024-03-06T08:03:28;101144.00;;;3.26;33.59
61205;BME280;47068;55.780;37.520;2024-03-06T08:05:53;101147.28;;;3.63;31.69
61205;BME280;47068;55.780;37.520;2024-03-06T08:08:19;101156.78;;;3.81;31.76
61205;BME280;47068;55.780;37.520;2024-03-06T08:10:44;101150.16;;;3.74;31.97
61205;BME280;47068;55.780;37.520;2024-03-06T08:13:10;101154.16;;;3.65;31.59
61205;BME280;47068;55.780;37.520;2024-03-06T08:15:35;101155.59;;;3.71;31.68
61205;BME280;47068;55.780;37.520;2024-03-06T08:18:00;101166.97;;;3.55;30.44
61205;BME280;47068;55.780;37.520;2024-03-06T08:20:26;101163.44;;;3.39;30.24
61205;BME280;47068;55.780;37.520;2024-03-06T08:22:52;101161.94;;;3.02;31.34
61205;BME280;47068;55.780;37.520;2024-03-06T08:25:18;101148.91;;;3.16;31.25
61205;BME280;47068;55.780;37.520;2024-03-06T08:27:43;101145.78;;;3.26;31.13
61205;BME280;47068;55.780;37.520;2024-03-06T08:30:09;101148.09;;;3.47;31.59
61205;BME280;47068;55.780;37.520;2024-03-06T08:32:35;101147.13;;;3.66;31.13
61205;BME280;47068;55.780;37.520;2024-03-06T08:35:05;101148.94;;;3.95;30.92
61205;BME280;47068;55.780;37.520;2024-03-06T08:37:36;101149.22;;;4.06;30.02
61205;BME280;47068;55.780;37.520;2024-03-06T08:40:02;101147.31;;;4.08;30.23
61205;BME280;47068;55.780;37.520;2024-03-06T08:42:27;101141.81;;;4.13;29.78
61205;BME280;47068;55.780;37.520;2024-03-06T08:44:53;101140.38;;;4.07;29.57
61205;BME280;47068;55.780;37.520;2024-03-06T08:47:18;101137.69;;;4.23;30.28
61205;BME280;47068;55.780;37.520;2024-03-06T08:49:44;101137.69;;;4.53;29.31
61205;BME280;47068;55.780;37.520;2024-03-06T08:52:09;101134.94;;;4.40;28.27
61205;BME280;47068;55.780;37.520;2024-03-06T08:54:35;101140.50;;;3.59;30.00
61205;BME280;47068;55.780;37.520;2024-03-06T08:57:01;101136.81;;;2.97;30.27
61205;BME280;47068;55.780;37.520;2024-03-06T08:59:28;101138.31;;;3.18;30.36
61205;BME280;47068;55.780;37.520;2024-03-06T09:01:53;101129.13;;;2.59;31.36
61205;BME280;47068;55.780;37.520;2024-03-06T09:04:19;101141.03;;;2.66;31.76
61205;BME280;47068;55.780;37.520;2024-03-06T09:06:44;101141.25;;;3.12;31.04
61205;BME280;47068;55.780;37.520;2024-03-06T09:09:10;101129.75;;;3.30;30.94
61205;BME280;47068;55.780;37.520;2024-03-06T09:11:36;101130.09;;;3.40;30.25
61205;BME280;47068;55.780;37.520;2024-03-06T09:14:01;101136.97;;;3.42;30.61
61205;BME280;47068;55.780;37.520;2024-03-06T09:16:26;101134.34;;;3.42;30.68
61205;BME280;47068;55.780;37.520;2024-03-06T09:18:52;101138.94;;;3.39;30.95
61205;BME280;47068;55.780;37.520;2024-03-06T09:21:18;101134.00;;;3.33;31.19
61205;BME280;47068;55.780;37.520;2024-03-06T09:23:44;101123.69;;;3.45;30.72
61205;BME280;47068;55.780;37.520;2024-03-06T09:26:10;101128.34;;;3.72;29.94
61205;BME280;47068;55.780;37.520;2024-03-06T09:28:35;101119.25;;;3.77;29.51
61205;BME280;47068;55.780;37.520;2024-03-06T09:31:00;101112.03;;;3.65;29.16
61205;BME280;47068;55.780;37.520;2024-03-06T09:33:26;101120.78;;;3.66;29.53
61205;BME280;47068;55.780;37.520;2024-03-06T09:35:51;101116.38;;;3.66;29.32
61205;BME280;47068;55.780;37.520;2024-03-06T09:38:17;101114.31;;;3.55;28.93
61205;BME280;47068;55.780;37.520;2024-03-06T09:40:42;101108.63;;;3.47;29.65
61205;BME280;47068;55.780;37.520;2024-03-06T09:43:07;101112.97;;;3.48;29.94
61205;BME280;47068;55.780;37.520;2024-03-06T09:45:34;101114.06;;;3.29;29.62
61205;BME280;47068;55.780;37.520;2024-03-06T09:47:59;101112.19;;;3.31;29.44
61205;BME280;47068;55.780;37.520;2024-03-06T09:50:24;101110.53;;;3.45;28.92
61205;BME280;47068;55.780;37.520;2024-03-06T09:52:52;101109.41;;;3.49;30.02
61205;BME280;47068;55.780;37.520;2024-03-06T09:55:20;101112.13;;;3.48;29.42
61205;BME280;47068;55.780;37.520;2024-03-06T09:57:46;101105.31;;;3.75;28.41
61205;BME280;47068;55.780;37.520;2024-03-06T10:00:11;101104.53;;;3.89;28.24
61205;BME280;47068;55.780;37.520;2024-03-06T10:02:49;101106.50;;;3.85;28.56
61205;BME280;47068;55.780;37.520;2024-03-06T10:05:23;101106.00;;;3.79;28.34
61205;BME280;47068;55.780;37.520;2024-03-06T10:07:49;101103.97;;;3.84;28.10
61205;BME280;47068;55.780;37.520;2024-03-06T10:10:16;101103.03;;;3.85;27.65
61205;BME280;47068;55.780;37.520;2024-03-06T10:12:42;101106.28;;;3.59;28.05
61205;BME280;47068;55.780;37.520;2024-03-06T10:15:08;101102.19;;;3.53;28.58
61205;BME280;47068;55.780;37.520;2024-03-06T10:17:37;101102.28;;;3.51;28.94
61205;BME280;47068;55.780;37.520;2024-03-06T10:20:16;101096.34;;;3.64;28.76
61205;BME280;47068;55.780;37.520;2024-03-06T10:22:41;101092.59;;;3.68;28.37
61205;BME280;47068;55.780;37.520;2024-03-06T10:25:08;101089.38;;;3.63;28.94
61205;BME280;47068;55.780;37.520;2024-03-06T10:27:34;101095.06;;;3.71;29.08
61205;BME280;47068;55.780;37.520;2024-03-06T10:30:03;101087.47;;;3.80;30.05
61205;BME280;47068;55.780;37.520;2024-03-06T10:32:29;101084.75;;;3.82;29.67
61205;BME280;47068;55.780;37.520;2024-03-06T10:34:55;101084.94;;;3.79;29.07
61205;BME280;47068;55.780;37.520;2024-03-06T10:37:20;101086.03;;;3.90;29.65
61205;BME280;47068;55.780;37.520;2024-03-06T10:39:47;101089.34;;;3.94;29.11
61205;BME280;47068;55.780;37.520;2024-03-06T10:42:14;101086.53;;;3.97;27.89
61205;BME280;47068;55.780;37.520;2024-03-06T10:44:42;101084.75;;;3.97;28.27
61205;BME280;47068;55.780;37.520;2024-03-06T10:47:10;101084.59;;;3.85;28.42
61205;BME280;47068;55.780;37.520;2024-03-06T10:49:36;101074.66;;;3.74;29.93
61205;BME280;47068;55.780;37.520;2024-03-06T10:52:02;101080.63;;;3.78;28.40
61205;BME280;47068;55.780;37.520;2024-03-06T10:54:31;101075.94;;;3.83;29.04
61205;BME280;47068;55.780;37.520;2024-03-06T10:56:57;101072.50;;;3.96;27.95
61205;BME280;47068;55.780;37.520;2024-03-06T10:59:26;101066.88;;;4.03;27.33
61205;BME280;47068;55.780;37.520;2024-03-06T11:01:58;101071.59;;;3.82;28.23
61205;BME280;47068;55.780;37.520;2024-03-06T11:04:26;101071.72;;;3.94;28.16
61205;BME280;47068;55.780;37.520;2024-03-06T11:06:58;101071.28;;;4.02;27.62
61205;BME280;47068;55.780;37.520;2024-03-06T11:09:27;101066.09;;;3.86;28.27
61205;BME280;47068;55.780;37.520;2024-03-06T11:11:53;101069.66;;;3.70;28.67
61205;BME280;47068;55.780;37.520;2024-03-06T11:14:22;101069.06;;;3.02;27.78
61205;BME280;47068;55.780;37.520;2024-03-06T11:17:31;101060.09;;;2.73;28.98
61205;BME280;47068;55.780;37.520;2024-03-06T11:25:06;101059.09;;;2.75;29.15
61205;BME280;47068;55.780;37.520;2024-03-06T11:27:31;101053.31;;;2.69;29.24
61205;BME280;47068;55.780;37.520;2024-03-06T11:30:03;101051.75;;;2.65;28.86
61205;BME280;47068;55.780;37.520;2024-03-06T11:32:58;101044.28;;;2.57;28.93
61205;BME280;47068;55.780;37.520;2024-03-06T11:35:27;101044.78;;;2.48;29.08
61205;BME280;47068;55.780;37.520;2024-03-06T11:37:53;101040.16;;;2.02;27.61
61205;BME280;47068;55.780;37.520;2024-03-06T11:40:25;101039.72;;;1.57;30.63
61205;BME280;47068;55.780;37.520;2024-03-06T11:42:50;101041.19;;;1.63;31.07
61205;BME280;47068;55.780;37.520;2024-03-06T11:45:17;101039.81;;;1.73;30.38
61205;BME280;47068;55.780;37.520;2024-03-06T11:48:02;101031.81;;;1.76;31.79
61205;BME280;47068;55.780;37.520;2024-03-06T11:50:28;101034.28;;;1.79;32.20
61205;BME280;47068;55.780;37.520;2024-03-06T11:52:56;101039.38;;;1.82;31.56
61205;BME280;47068;55.780;37.520;2024-03-06T11:55:22;101023.47;;;1.85;31.67
61205;BME280;47068;55.780;37.520;2024-03-06T11:57:50;101024.41;;;1.84;32.36
61205;BME280;47068;55.780;37.520;2024-03-06T12:00:16;101021.94;;;1.98;31.77
61205;BME280;47068;55.780;37.520;2024-03-06T12:02:41;101020.94;;;2.18;31.19
61205;BME280;47068;55.780;37.520;2024-03-06T12:05:07;101021.47;;;2.25;30.75
61205;BME280;47068;55.780;37.520;2024-03-06T12:07:45;101018.38;;;2.34;31.30
61205;BME280;47068;55.780;37.520;2024-03-06T12:10:10;101008.47;;;2.39;31.52
61205;BME280;47068;55.780;37.520;2024-03-06T12:12:36;101011.38;;;2.50;30.82
61205;BME280;47068;55.780;37.520;2024-03-06T12:15:03;101012.25;;;2.66;30.82
61205;BME280;47068;55.780;37.520;2024-03-06T12:17:29;101004.75;;;2.76;30.42
61205;BME280;47068;55.780;37.520;2024-03-06T12:19:55;101002.78;;;2.80;29.53
61205;BME280;47068;55.780;37.520;2024-03-06T12:22:24;101007.91;;;2.83;29.19
61205;BME280;47068;55.780;37.520;2024-03-06T12:24:58;101005.28;;;3.14;29.23
61205;BME280;47068;55.780;37.520;2024-03-06T12:27:23;100987.81;;;3.29;29.04
61205;BME280;47068;55.780;37.520;2024-03-06T12:29:52;100992.28;;;3.27;28.43
61205;BME280;47068;55.780;37.520;2024-03-06T12:32:17;100993.28;;;3.40;29.16
61205;BME280;47068;55.780;37.520;2024-03-06T12:34:43;101000.09;;;3.44;29.19
61205;BME280;47068;55.780;37.520;2024-03-06T12:37:09;100992.19;;;3.44;29.59
61205;BME280;47068;55.780;37.520;2024-03-06T12:39:35;100995.06;;;3.39;29.52
61205;BME280;47068;55.780;37.520;2024-03-06T12:42:01;101000.09;;;3.28;29.49
61205;BME280;47068;55.780;37.520;2024-03-06T12:44:26;100993.34;;;3.24;29.64